createdAt,value
2019-01-13T00:00:40.750Z,27.07
2019-01-13T00:03:08.817Z,32.55
2019-01-13T00:05:36.651Z,32.17
2019-01-13T00:08:05.318Z,28.55
2019-01-13T00:10:35.228Z,29.12
2019-01-13T00:13:04.151Z,27.50
2019-01-13T00:15:33.844Z,32.23
2019-01-13T00:18:01.791Z,30.70
2019-01-13T00:20:29.689Z,36.13
2019-01-13T00:22:57.424Z,30.70
2019-01-13T00:25:30.270Z,30.23
2019-01-13T00:27:57.997Z,28.05
2019-01-13T00:30:25.557Z,27.82
2019-01-13T00:32:53.144Z,27.22
2019-01-13T00:35:23.047Z,30.95
2019-01-13T00:37:50.719Z,28.92
2019-01-13T00:40:18.696Z,29.70
2019-01-13T00:42:46.318Z,35.98
2019-01-13T00:45:15.271Z,30.12
2019-01-13T00:47:43.192Z,30.70
2019-01-13T00:50:12.157Z,29.95
2019-01-13T00:52:39.745Z,31.65
2019-01-13T00:55:08.361Z,34.10
2019-01-13T00:57:36.119Z,34.23
2019-01-13T01:00:07.659Z,37.38
2019-01-13T01:02:35.661Z,33.13
2019-01-13T01:05:04.656Z,30.25
2019-01-13T01:07:36.122Z,29.50
2019-01-13T01:10:06.518Z,29.77
2019-01-13T01:12:35.216Z,22.17
2019-01-13T01:15:05.010Z,27.17
2019-01-13T01:17:33.013Z,28.98
2019-01-13T01:20:00.568Z,24.52
2019-01-13T01:22:30.154Z,39.25
2019-01-13T01:24:58.176Z,41.10
2019-01-13T01:27:29.427Z,42.13
2019-01-13T01:29:57.083Z,46.88
2019-01-13T01:32:25.278Z,34.33
2019-01-13T01:34:52.922Z,31.77
2019-01-13T01:37:22.136Z,30.02
2019-01-13T01:39:49.941Z,29.87
2019-01-13T01:42:17.530Z,28.52
2019-01-13T01:44:45.184Z,29.40
2019-01-13T01:47:14.014Z,28.60
2019-01-13T01:49:41.795Z,25.45
2019-01-13T01:52:10.979Z,23.07
2019-01-13T01:54:38.803Z,19.67
2019-01-13T01:57:07.197Z,23.30
2019-01-13T01:59:35.649Z,18.70
2019-01-13T02:02:05.735Z,20.45
2019-01-13T02:04:34.389Z,17.70
2019-01-13T02:07:02.337Z,18.87
2019-01-13T02:09:30.108Z,18.02
2019-01-13T02:11:57.947Z,18.40
2019-01-13T02:14:25.851Z,18.73
2019-01-13T02:16:53.414Z,22.10
2019-01-13T02:19:24.678Z,18.73
2019-01-13T02:21:52.216Z,17.23
2019-01-13T02:24:22.523Z,15.58
2019-01-13T02:26:50.588Z,15.13
2019-01-13T02:29:18.305Z,13.83
2019-01-13T02:31:46.441Z,13.88
2019-01-13T02:34:14.067Z,17.42
2019-01-13T02:36:42.382Z,14.40
2019-01-13T02:39:10.560Z,13.70
2019-01-13T02:41:38.595Z,15.13
2019-01-13T02:44:06.269Z,17.80
2019-01-13T02:46:35.901Z,13.80
2019-01-13T02:49:03.923Z,13.00
2019-01-13T02:51:35.324Z,19.52
2019-01-13T02:54:03.259Z,13.25
2019-01-13T02:56:35.193Z,15.03
2019-01-13T02:59:02.971Z,17.60
2019-01-13T03:01:30.878Z,14.90
2019-01-13T03:03:58.650Z,15.00
2019-01-13T03:06:26.717Z,12.20
2019-01-13T03:08:54.296Z,14.10
2019-01-13T03:11:26.927Z,15.88
2019-01-13T03:13:54.583Z,14.65
2019-01-13T03:16:22.563Z,13.08
2019-01-13T03:18:50.346Z,12.45
2019-01-13T03:21:21.211Z,14.18
2019-01-13T03:23:48.963Z,14.50
2019-01-13T03:26:17.033Z,11.83
2019-01-13T03:28:44.673Z,16.50
2019-01-13T03:31:12.837Z,12.88
2019-01-13T03:33:40.670Z,12.90
2019-01-13T03:36:08.281Z,12.58
2019-01-13T03:38:36.327Z,12.82
2019-01-13T03:41:04.235Z,13.83
2019-01-13T03:43:32.807Z,14.20
2019-01-13T03:46:00.593Z,13.40
2019-01-13T03:48:29.403Z,13.05
2019-01-13T03:50:57.181Z,14.68
2019-01-13T03:53:28.785Z,14.35
2019-01-13T03:55:56.372Z,14.43
2019-01-13T03:58:26.407Z,12.45
2019-01-13T04:00:54.074Z,11.57
2019-01-13T04:03:22.006Z,12.58
2019-01-13T04:05:49.713Z,14.55
2019-01-13T04:08:17.621Z,11.65
2019-01-13T04:10:45.505Z,13.03
2019-01-13T04:13:13.035Z,14.78
2019-01-13T04:15:46.343Z,17.32
2019-01-13T04:18:14.073Z,18.05
2019-01-13T04:20:43.202Z,16.48
2019-01-13T04:23:11.123Z,18.60
2019-01-13T04:25:39.223Z,13.58
2019-01-13T04:28:07.157Z,15.03
2019-01-13T04:30:35.926Z,14.45
2019-01-13T04:33:03.965Z,14.05
2019-01-13T04:35:32.857Z,14.95
2019-01-13T04:38:00.584Z,16.60
2019-01-13T04:40:30.500Z,14.35
2019-01-13T04:42:58.354Z,16.35
2019-01-13T04:45:26.348Z,12.88
2019-01-13T04:47:55.656Z,15.58
2019-01-13T04:50:24.616Z,19.45
2019-01-13T04:52:52.252Z,17.30
2019-01-13T04:55:19.890Z,15.25
2019-01-13T04:57:48.596Z,15.10
2019-01-13T05:00:17.953Z,16.67
2019-01-13T05:02:46.334Z,13.30
2019-01-13T05:05:14.141Z,12.88
2019-01-13T05:07:42.063Z,15.58
2019-01-13T05:10:12.993Z,14.33
2019-01-13T05:12:40.597Z,15.15
2019-01-13T05:15:08.644Z,16.02
2019-01-13T05:17:36.698Z,15.68
2019-01-13T05:20:07.563Z,17.42
2019-01-13T05:22:36.897Z,15.80
2019-01-13T05:25:06.179Z,16.85
2019-01-13T05:27:33.887Z,14.68
2019-01-13T05:30:04.474Z,15.98
2019-01-13T05:32:33.300Z,16.55
2019-01-13T05:35:00.938Z,15.43
2019-01-13T05:37:28.719Z,14.95
2019-01-13T05:39:56.422Z,16.52
2019-01-13T05:42:24.435Z,17.52
2019-01-13T05:44:52.466Z,18.23
2019-01-13T05:47:20.130Z,24.07
2019-01-13T05:49:47.681Z,14.80
2019-01-13T05:52:16.346Z,21.10
2019-01-13T05:54:44.138Z,20.88
2019-01-13T05:57:11.731Z,16.32
2019-01-13T05:59:39.385Z,20.82
2019-01-13T06:02:07.277Z,21.15
2019-01-13T06:04:36.036Z,24.40
2019-01-13T06:07:04.620Z,21.42
2019-01-13T06:09:33.465Z,19.15
2019-01-13T06:12:01.114Z,22.20
2019-01-13T06:14:30.723Z,19.75
2019-01-13T06:16:58.483Z,19.32
2019-01-13T06:19:26.961Z,19.62
2019-01-13T06:21:54.693Z,21.77
2019-01-13T06:24:22.755Z,21.42
2019-01-13T06:26:50.423Z,17.92
2019-01-13T06:29:18.436Z,25.52
2019-01-13T06:31:46.061Z,21.85
2019-01-13T06:34:14.120Z,21.33
2019-01-13T06:36:42.873Z,22.85
2019-01-13T06:39:12.270Z,19.15
2019-01-13T06:41:40.216Z,23.62
2019-01-13T06:44:08.039Z,21.68
2019-01-13T06:46:36.717Z,23.52
2019-01-13T06:49:05.351Z,23.22
2019-01-13T06:51:35.361Z,21.33
2019-01-13T06:54:04.805Z,22.27
2019-01-13T06:56:32.775Z,26.27
2019-01-13T06:59:00.523Z,31.52
2019-01-13T07:01:28.393Z,35.05
2019-01-13T07:03:57.889Z,39.60
2019-01-13T07:06:25.790Z,40.05
2019-01-13T07:08:53.534Z,35.73
2019-01-13T07:11:21.535Z,30.70
2019-01-13T07:13:50.727Z,29.90
2019-01-13T07:16:19.751Z,28.25
2019-01-13T07:18:47.492Z,28.67
2019-01-13T07:21:15.481Z,29.12
2019-01-13T07:23:43.230Z,32.33
2019-01-13T07:26:11.283Z,35.28
2019-01-13T07:28:39.125Z,35.92
2019-01-13T07:31:07.051Z,41.37
2019-01-13T07:33:36.053Z,39.65
2019-01-13T07:36:03.871Z,38.55
2019-01-13T07:38:31.833Z,38.98
2019-01-13T07:40:59.588Z,40.43
2019-01-13T07:43:27.440Z,48.40
2019-01-13T07:45:55.392Z,44.88
2019-01-13T07:48:23.131Z,56.13
2019-01-13T07:50:55.503Z,62.50
2019-01-13T07:53:23.348Z,58.10
2019-01-13T07:55:52.141Z,62.00
2019-01-13T07:58:19.972Z,52.35
2019-01-13T08:00:47.857Z,46.50
2019-01-13T08:03:15.631Z,48.70
2019-01-13T08:05:43.600Z,44.40
2019-01-13T08:08:11.447Z,44.83
2019-01-13T08:10:39.390Z,45.50
2019-01-13T08:13:07.987Z,40.50
2019-01-13T08:15:36.641Z,42.53
2019-01-13T08:18:05.028Z,45.10
2019-01-13T08:20:33.564Z,38.25
2019-01-13T08:23:01.618Z,34.05
2019-01-13T08:25:29.493Z,33.00
2019-01-13T08:27:57.250Z,30.40
2019-01-13T08:30:28.193Z,31.85
2019-01-13T08:32:56.489Z,31.27
2019-01-13T08:35:24.625Z,31.15
2019-01-13T08:37:52.383Z,29.27
2019-01-13T08:40:21.497Z,32.42
2019-01-13T08:42:50.241Z,37.50
2019-01-13T08:45:18.872Z,38.13
2019-01-13T08:47:46.947Z,38.90
2019-01-13T08:50:22.371Z,44.85
2019-01-13T08:52:51.395Z,37.70
2019-01-13T08:55:23.526Z,28.45
2019-01-13T08:57:52.479Z,32.05
2019-01-13T09:00:26.650Z,31.52
2019-01-13T09:02:54.378Z,26.57
2019-01-13T09:05:23.520Z,28.57
2019-01-13T09:07:52.130Z,34.08
2019-01-13T09:10:20.336Z,27.22
2019-01-13T09:12:48.277Z,30.95
2019-01-13T09:15:18.648Z,33.48
2019-01-13T09:17:48.651Z,28.50
2019-01-13T09:20:21.685Z,31.85
2019-01-13T09:22:50.393Z,39.48
2019-01-13T09:25:18.435Z,33.00
2019-01-13T09:27:46.194Z,29.87
2019-01-13T09:30:24.817Z,31.77
2019-01-13T09:32:52.352Z,34.33
2019-01-13T09:35:26.960Z,36.15
2019-01-13T09:37:55.793Z,35.23
2019-01-13T09:40:26.359Z,35.35
2019-01-13T09:42:54.627Z,30.90
2019-01-13T09:45:22.684Z,34.60
2019-01-13T09:47:52.492Z,31.95
2019-01-13T09:50:20.589Z,34.08
2019-01-13T09:52:53.145Z,34.40
2019-01-13T09:55:22.922Z,30.72
2019-01-13T09:57:51.815Z,32.48
2019-01-13T10:00:27.672Z,31.85
2019-01-13T10:02:55.532Z,28.92
2019-01-13T10:05:23.428Z,28.83
2019-01-13T10:07:51.644Z,34.35
2019-01-13T10:10:19.838Z,31.00
2019-01-13T10:12:49.139Z,31.35
2019-01-13T10:15:19.214Z,31.70
2019-01-13T10:17:48.265Z,32.95
2019-01-13T10:20:16.395Z,33.13
2019-01-13T10:22:45.115Z,29.30
2019-01-13T10:25:13.729Z,33.75
2019-01-13T10:27:43.615Z,33.83
2019-01-13T10:30:17.225Z,29.77
2019-01-13T10:32:46.670Z,30.72
2019-01-13T10:35:16.070Z,32.00
2019-01-13T10:37:45.126Z,32.15
2019-01-13T10:40:15.580Z,34.85
2019-01-13T10:42:48.085Z,40.52
2019-01-13T10:45:16.326Z,36.40
2019-01-13T10:47:47.701Z,34.73
2019-01-13T10:50:19.057Z,34.18
2019-01-13T10:52:47.251Z,36.55
2019-01-13T10:55:15.703Z,31.65
2019-01-13T10:57:45.650Z,34.53
2019-01-13T11:00:25.907Z,29.60
2019-01-13T11:03:02.081Z,27.90
2019-01-13T11:05:26.696Z,28.20
2019-01-13T11:07:55.937Z,26.10
2019-01-13T11:10:23.790Z,33.42
2019-01-13T11:12:53.718Z,25.37
2019-01-13T11:15:22.050Z,24.37
2019-01-13T11:17:52.166Z,27.20
2019-01-13T11:20:25.812Z,24.37
2019-01-13T11:22:55.747Z,23.75
2019-01-13T11:25:23.523Z,22.77
2019-01-13T11:27:51.431Z,26.30
2019-01-13T11:30:20.550Z,23.80
2019-01-13T11:32:49.310Z,26.85
2019-01-13T11:35:17.253Z,25.72
2019-01-13T11:37:47.550Z,20.60
2019-01-13T11:40:18.118Z,26.30
2019-01-13T11:42:50.126Z,28.30
2019-01-13T11:45:18.197Z,24.27
2019-01-13T11:47:45.971Z,22.20
2019-01-13T11:50:16.975Z,17.20
2019-01-13T11:52:47.365Z,19.77
2019-01-13T11:55:15.461Z,21.62
2019-01-13T11:57:44.530Z,20.40
2019-01-13T12:00:15.467Z,18.45
2019-01-13T12:02:44.521Z,19.50
2019-01-13T12:05:12.400Z,22.17
2019-01-13T12:07:40.386Z,26.15
2019-01-13T12:10:10.850Z,23.47
2019-01-13T12:12:38.554Z,27.67
2019-01-13T12:15:09.048Z,33.38
2019-01-13T12:17:36.654Z,34.55
2019-01-13T12:20:05.438Z,32.65
2019-01-13T12:22:33.799Z,32.88
2019-01-13T12:25:01.440Z,31.65
2019-01-13T12:27:30.268Z,29.20
2019-01-13T12:29:57.983Z,26.65
2019-01-13T12:32:26.130Z,28.50
2019-01-13T12:34:53.818Z,35.68
2019-01-13T12:37:21.527Z,29.12
2019-01-13T12:39:50.841Z,30.25
2019-01-13T12:42:19.987Z,30.82
2019-01-13T12:44:47.651Z,29.90
2019-01-13T12:47:15.503Z,38.90
2019-01-13T12:49:43.417Z,33.23
2019-01-13T12:52:11.742Z,41.75
2019-01-13T12:54:39.952Z,40.20
2019-01-13T12:57:07.939Z,39.40
2019-01-13T12:59:38.898Z,36.88
2019-01-13T13:02:06.809Z,44.85
2019-01-13T13:04:35.528Z,51.40
2019-01-13T13:07:03.555Z,54.95
2019-01-13T13:09:33.237Z,48.87
2019-01-13T13:12:01.167Z,46.10
2019-01-13T13:14:28.950Z,45.95
2019-01-13T13:16:56.935Z,42.80
2019-01-13T13:19:25.079Z,49.80
2019-01-13T13:21:52.768Z,45.80
2019-01-13T13:24:24.220Z,53.45
2019-01-13T13:26:52.119Z,42.45
2019-01-13T13:29:24.443Z,45.70
2019-01-13T13:31:52.450Z,39.88
2019-01-13T13:34:20.110Z,38.13
2019-01-13T13:36:48.031Z,39.65
2019-01-13T13:39:15.817Z,42.73
2019-01-13T13:41:43.735Z,48.92
2019-01-13T13:44:11.666Z,46.50
2019-01-13T13:46:39.208Z,47.65
2019-01-13T13:49:06.920Z,51.65
2019-01-13T13:51:36.510Z,51.95
2019-01-13T13:54:04.653Z,55.63
2019-01-13T13:56:32.719Z,57.40
2019-01-13T13:59:00.565Z,54.67
2019-01-13T14:01:29.628Z,59.33
2019-01-13T14:03:57.475Z,47.48
2019-01-13T14:06:25.337Z,43.13
2019-01-13T14:08:53.015Z,38.73
2019-01-13T14:11:21.236Z,33.02
2019-01-13T14:13:53.067Z,33.28
2019-01-13T14:16:20.891Z,34.75
2019-01-13T14:18:48.786Z,37.90
2019-01-13T14:21:16.914Z,38.55
2019-01-13T14:23:44.543Z,34.05
2019-01-13T14:26:13.569Z,31.37
2019-01-13T14:28:42.185Z,29.10
2019-01-13T14:31:10.664Z,32.15
2019-01-13T14:33:38.380Z,30.55
2019-01-13T14:36:06.299Z,30.97
2019-01-13T14:38:34.173Z,27.15
2019-01-13T14:41:02.067Z,37.10
2019-01-13T14:43:29.965Z,30.12
2019-01-13T14:45:58.184Z,29.52
2019-01-13T14:48:27.368Z,31.62
2019-01-13T14:50:54.945Z,33.75
2019-01-13T14:53:22.916Z,32.03
2019-01-13T14:55:50.571Z,37.28
2019-01-13T14:58:18.238Z,33.63
2019-01-13T15:00:46.952Z,34.67
2019-01-13T15:03:15.844Z,37.67
2019-01-13T15:05:44.019Z,38.00
2019-01-13T15:08:11.761Z,35.33
2019-01-13T15:10:39.708Z,41.37
2019-01-13T15:13:07.543Z,37.98
2019-01-13T15:15:35.452Z,38.25
2019-01-13T15:18:04.548Z,40.12
2019-01-13T15:20:32.116Z,38.35
2019-01-13T15:23:04.097Z,40.23
2019-01-13T15:25:32.019Z,39.23
2019-01-13T15:28:00.900Z,40.90
2019-01-13T15:30:33.614Z,39.75
2019-01-13T15:33:01.267Z,45.38
2019-01-13T15:35:29.090Z,44.67
2019-01-13T15:37:56.862Z,41.68
2019-01-13T15:40:25.878Z,38.85
2019-01-13T15:42:57.864Z,39.60
2019-01-13T15:45:25.985Z,42.17
2019-01-13T15:47:53.651Z,42.78
2019-01-13T15:50:23.911Z,42.75
2019-01-13T15:52:51.917Z,42.53
2019-01-13T15:55:19.723Z,43.92
2019-01-13T15:57:47.397Z,41.90
2019-01-13T16:00:18.168Z,44.67
2019-01-13T16:02:47.537Z,47.80
2019-01-13T16:05:15.310Z,48.95
2019-01-13T16:07:42.836Z,44.23
2019-01-13T16:10:13.476Z,37.30
2019-01-13T16:12:42.094Z,35.13
2019-01-13T16:15:10.927Z,36.73
2019-01-13T16:17:38.571Z,32.30
2019-01-13T16:20:13.531Z,37.55
2019-01-13T16:22:41.296Z,33.92
2019-01-13T16:25:09.466Z,32.63
2019-01-13T16:27:37.097Z,34.08
2019-01-13T16:30:08.566Z,32.65
2019-01-13T16:32:38.497Z,40.00
2019-01-13T16:35:07.381Z,34.95
2019-01-13T16:37:35.531Z,54.80
2019-01-13T16:40:05.285Z,49.23
2019-01-13T16:42:34.186Z,50.65
2019-01-13T16:45:04.457Z,42.95
2019-01-13T16:47:32.383Z,49.20
2019-01-13T16:50:01.330Z,43.55
2019-01-13T16:52:29.224Z,58.55
2019-01-13T16:54:56.842Z,51.92
2019-01-13T16:57:27.557Z,53.30
2019-01-13T16:59:58.578Z,49.40
2019-01-13T17:02:32.963Z,55.67
2019-01-13T17:04:57.134Z,60.88
2019-01-13T17:07:25.070Z,57.35
2019-01-13T17:09:53.794Z,65.40
2019-01-13T17:12:21.693Z,56.77
2019-01-13T17:14:49.474Z,52.17
2019-01-13T17:17:17.013Z,46.98
2019-01-13T17:19:44.832Z,48.30
2019-01-13T17:22:12.690Z,48.58
2019-01-13T17:24:46.645Z,50.73
2019-01-13T17:27:14.594Z,55.65
2019-01-13T17:29:43.271Z,48.38
2019-01-13T17:32:10.914Z,51.28
2019-01-13T17:34:38.558Z,46.25
2019-01-13T17:37:06.440Z,48.35
2019-01-13T17:39:34.718Z,49.23
2019-01-13T17:42:02.232Z,41.48
2019-01-13T17:44:30.073Z,39.73
2019-01-13T17:46:57.870Z,36.70
2019-01-13T17:49:25.740Z,39.55
2019-01-13T17:51:53.417Z,40.08
2019-01-13T17:54:21.037Z,40.95
2019-01-13T17:56:50.275Z,38.50
2019-01-13T17:59:18.040Z,42.93
2019-01-13T18:01:53.639Z,45.20
2019-01-13T18:04:21.589Z,49.60
2019-01-13T18:06:51.534Z,45.20
2019-01-13T18:09:19.152Z,47.45
2019-01-13T18:11:50.527Z,47.10
2019-01-13T18:14:19.243Z,44.98
2019-01-13T18:16:47.125Z,46.90
2019-01-13T18:19:14.661Z,42.10
2019-01-13T18:21:42.272Z,48.55
2019-01-13T18:24:10.141Z,47.53
2019-01-13T18:26:38.054Z,40.63
2019-01-13T18:29:05.927Z,53.45
2019-01-13T18:31:33.879Z,45.70
2019-01-13T18:34:01.637Z,48.28
2019-01-13T18:36:29.331Z,48.87
2019-01-13T18:38:57.076Z,47.00
2019-01-13T18:41:25.013Z,42.62
2019-01-13T18:43:56.110Z,47.95
2019-01-13T18:47:30.392Z,48.73
2019-01-13T18:51:00.104Z,46.50
2019-01-13T18:54:19.520Z,52.05
2019-01-13T18:58:08.497Z,53.83
2019-01-13T19:01:44.327Z,40.98
2019-01-13T19:05:20.911Z,41.25
2019-01-13T19:07:54.144Z,42.25
2019-01-13T19:10:52.910Z,48.35
2019-01-13T19:14:25.280Z,48.05
2019-01-13T19:17:16.281Z,48.65
2019-01-13T19:20:14.607Z,54.13
2019-01-13T19:24:09.650Z,52.35
2019-01-13T19:26:56.363Z,48.17
2019-01-13T19:30:47.337Z,50.28
2019-01-13T19:33:16.902Z,58.35
2019-01-13T19:36:43.557Z,60.83
2019-01-13T19:39:26.565Z,67.12
2019-01-13T19:42:11.382Z,62.78
2019-01-13T19:44:41.922Z,53.20
2019-01-13T19:47:10.237Z,54.18
2019-01-13T19:49:40.036Z,51.68
2019-01-13T19:52:07.663Z,62.03
2019-01-13T19:54:37.161Z,53.48
2019-01-13T19:57:07.320Z,53.05
2019-01-13T19:59:35.575Z,51.90
2019-01-13T20:02:04.382Z,50.80
2019-01-13T20:04:32.273Z,54.40
2019-01-13T20:06:59.970Z,46.18
2019-01-13T20:09:27.990Z,55.45
2019-01-13T20:11:55.835Z,48.33
2019-01-13T20:14:24.560Z,45.73
2019-01-13T20:16:52.427Z,42.23
2019-01-13T20:19:20.285Z,41.63
2019-01-13T20:21:56.401Z,40.30
2019-01-13T20:25:20.566Z,40.25
2019-01-13T20:28:26.202Z,64.80
2019-01-13T20:31:17.268Z,47.83
2019-01-13T20:33:48.543Z,54.33
2019-01-13T20:36:18.020Z,57.40
2019-01-13T20:38:46.801Z,55.75
2019-01-13T20:41:14.566Z,172.47
2019-01-13T20:43:42.224Z,179.15
2019-01-13T20:46:10.078Z,113.88
2019-01-13T20:48:39.026Z,69.77
2019-01-13T20:51:06.987Z,73.22
2019-01-13T20:53:34.708Z,101.47
2019-01-13T20:56:02.761Z,78.42
2019-01-13T20:58:30.556Z,76.77
2019-01-13T21:00:58.204Z,68.95
2019-01-13T21:03:26.415Z,58.65
2019-01-13T21:05:54.260Z,63.45
2019-01-13T21:08:21.985Z,67.45
2019-01-13T21:10:50.704Z,64.20
2019-01-13T21:13:18.461Z,63.05
2019-01-13T21:15:47.335Z,62.30
2019-01-13T21:18:15.028Z,70.30
2019-01-13T21:20:42.696Z,82.85
2019-01-13T21:23:11.601Z,67.10
2019-01-13T21:25:39.320Z,73.02
2019-01-13T21:28:07.476Z,82.15
2019-01-13T21:30:35.335Z,72.22
2019-01-13T21:33:03.387Z,70.28
2019-01-13T21:35:34.112Z,61.92
2019-01-13T21:38:02.265Z,73.90
2019-01-13T21:40:29.833Z,96.70
2019-01-13T21:42:57.432Z,91.63
2019-01-13T21:45:26.616Z,75.08
2019-01-13T21:47:56.783Z,71.60
2019-01-13T21:50:24.855Z,59.90
2019-01-13T21:52:53.757Z,56.00
2019-01-13T21:55:21.770Z,54.03
2019-01-13T21:57:49.489Z,54.18
2019-01-13T22:00:22.470Z,73.00
2019-01-13T22:02:52.204Z,64.72
2019-01-13T22:05:20.564Z,54.48
2019-01-13T22:07:48.742Z,71.28
2019-01-13T22:10:18.390Z,88.17
2019-01-13T22:12:46.209Z,91.90
2019-01-13T22:15:15.692Z,93.15
2019-01-13T22:17:43.904Z,84.10
2019-01-13T22:20:14.139Z,71.28
2019-01-13T22:22:41.588Z,60.92
2019-01-13T22:25:09.972Z,55.73
2019-01-13T22:27:36.148Z,61.00
2019-01-13T22:30:02.847Z,54.30
2019-01-13T22:32:28.997Z,66.80
2019-01-13T22:34:55.227Z,60.10
2019-01-13T22:37:21.476Z,52.17
2019-01-13T22:39:49.759Z,59.55
2019-01-13T22:42:17.667Z,71.67
2019-01-13T22:44:45.433Z,63.10
2019-01-13T22:47:15.120Z,69.03
2019-01-13T22:49:42.978Z,71.57
2019-01-13T22:52:10.875Z,57.05
2019-01-13T22:54:39.648Z,42.50
2019-01-13T22:57:07.312Z,44.25
2019-01-13T22:59:36.917Z,52.85
2019-01-13T23:02:05.034Z,48.25
2019-01-13T23:04:33.071Z,46.80
2019-01-13T23:07:00.627Z,49.35
2019-01-13T23:09:28.361Z,43.83
2019-01-13T23:11:56.075Z,38.23
2019-01-13T23:14:23.986Z,44.20
2019-01-13T23:16:52.692Z,44.00
2019-01-13T23:19:20.676Z,39.55
2019-01-13T23:21:49.410Z,40.88
2019-01-13T23:24:18.382Z,34.60
2019-01-13T23:26:48.815Z,35.48
2019-01-13T23:29:16.681Z,36.25
2019-01-13T23:31:45.890Z,38.78
2019-01-13T23:34:13.515Z,47.20
2019-01-13T23:36:41.475Z,48.20
2019-01-13T23:39:09.234Z,44.05
2019-01-13T23:41:36.909Z,43.65
2019-01-13T23:44:04.962Z,38.17
2019-01-13T23:46:32.870Z,41.10
2019-01-13T23:49:00.931Z,38.30
2019-01-13T23:51:28.715Z,39.65
2019-01-13T23:53:56.447Z,38.17
2019-01-13T23:56:24.485Z,42.70
2019-01-13T23:58:54.302Z,34.33
